Time;durP1;ratioP1;P1;durP2;ratioP2;P2;SDS_P1;SDS_P2;PMS_P1;PMS_P2;Temp;Humidity;BMP_temperature;BMP_pressure;BME280_temperature;BME280_humidity;BME280_pressure;Samples;Min_cycle;Max_cycle;Signal;HPM_P1;HPM_P2
2023/04/16 00:00:48;;;;;;;52.85;28.85;;;9.20;99.90;;;;;;4972614;28;20392;-72
2023/04/16 00:03:14;;;;;;;52.95;27.27;;;9.10;99.90;;;;;;4972034;28;20439;-73
2023/04/16 00:05:40;;;;;;;51.28;26.88;;;9.10;99.90;;;;;;4972757;28;20862;-73
2023/04/16 00:08:06;;;;;;;62.60;31.70;;;9.00;99.90;;;;;;4973586;28;20392;-73
2023/04/16 00:10:31;;;;;;;59.77;31.17;;;9.00;99.90;;;;;;4972782;28;20486;-73
2023/04/16 00:12:57;;;;;;;56.73;27.93;;;9.00;99.90;;;;;;4972138;28;20475;-75
2023/04/16 00:15:22;;;;;;;66.57;32.67;;;8.90;99.90;;;;;;4973002;28;20849;-72
2023/04/16 00:17:48;;;;;;;67.13;35.90;;;9.00;99.90;;;;;;4972766;28;20714;-71
2023/04/16 00:20:14;;;;;;;68.50;35.53;;;9.00;99.90;;;;;;4972580;28;20424;-73
2023/04/16 00:22:39;;;;;;;65.20;34.25;;;9.00;99.90;;;;;;4971861;28;20765;-72
2023/04/16 00:25:05;;;;;;;54.47;27.88;;;9.10;99.90;;;;;;4972619;28;20929;-73
2023/04/16 00:27:31;;;;;;;52.90;28.17;;;9.10;99.90;;;;;;4972740;28;20876;-73
2023/04/16 00:29:56;;;;;;;56.55;29.73;;;9.20;99.90;;;;;;4972517;28;20376;-73
2023/04/16 00:32:22;;;;;;;49.85;26.77;;;9.20;99.90;;;;;;4971488;28;20488;-72
2023/04/16 00:34:47;;;;;;;47.88;25.17;;;9.20;99.90;;;;;;4972461;28;20530;-73
2023/04/16 00:37:13;;;;;;;45.88;25.13;;;9.10;99.90;;;;;;4954896;28;20400;-73
2023/04/16 00:39:38;;;;;;;58.17;28.83;;;9.10;99.90;;;;;;4972268;28;20392;-72
2023/04/16 00:42:04;;;;;;;54.40;26.50;;;9.10;99.90;;;;;;4971393;28;20400;-73
2023/04/16 00:44:29;;;;;;;53.35;25.73;;;9.10;99.90;;;;;;4972159;28;20391;-72
2023/04/16 00:46:56;;;;;;;60.85;24.58;;;9.00;99.90;;;;;;4972188;28;20399;-72
2023/04/16 00:49:23;;;;;;;58.20;26.08;;;9.00;99.90;;;;;;4973085;28;20396;-74
2023/04/16 00:51:49;;;;;;;63.63;31.08;;;9.00;99.90;;;;;;4973679;28;20394;-74
2023/04/16 00:54:15;;;;;;;52.57;28.23;;;9.00;99.90;;;;;;4974094;28;20423;-73
2023/04/16 00:56:41;;;;;;;57.07;30.57;;;9.00;99.90;;;;;;4973415;28;20396;-73
2023/04/16 00:59:07;;;;;;;63.35;31.17;;;9.00;99.90;;;;;;4955743;28;20901;-73
2023/04/16 01:01:33;;;;;;;64.65;31.40;;;9.10;99.90;;;;;;4973263;28;20396;-73
2023/04/16 01:03:58;;;;;;;56.72;30.90;;;9.10;99.90;;;;;;4973843;28;20451;-75
2023/04/16 01:06:24;;;;;;;70.77;32.47;;;9.10;99.90;;;;;;4975084;28;20538;-74
2023/04/16 01:08:50;;;;;;;62.30;31.83;;;9.10;99.90;;;;;;4960913;28;20435;-73
2023/04/16 01:11:16;;;;;;;63.03;32.33;;;9.10;99.90;;;;;;4981013;28;20396;-73
2023/04/16 01:13:41;;;;;;;64.23;32.10;;;9.10;99.90;;;;;;4976318;28;20396;-73
2023/04/16 01:16:09;;;;;;;64.47;31.48;;;9.10;99.90;;;;;;4971887;28;20388;-73
2023/04/16 01:18:35;;;;;;;60.67;30.80;;;9.10;99.90;;;;;;4972130;28;20439;-73
2023/04/16 01:21:01;;;;;;;63.60;31.92;;;9.10;99.90;;;;;;4971467;28;20412;-73
2023/04/16 01:23:26;;;;;;;65.07;33.40;;;9.10;99.90;;;;;;4972018;28;20921;-74
2023/04/16 01:25:52;;;;;;;67.63;31.75;;;9.10;99.90;;;;;;4971926;28;20407;-74
2023/04/16 01:28:18;;;;;;;65.40;33.05;;;9.00;99.90;;;;;;4971715;28;20774;-73
2023/04/16 01:30:43;;;;;;;71.80;33.58;;;9.10;99.90;;;;;;4971813;28;20463;-74
2023/04/16 01:33:13;;;;;;;68.25;31.15;;;9.10;99.90;;;;;;4971324;28;20913;-73
2023/04/16 01:35:42;;;;;;;64.50;32.42;;;9.00;99.90;;;;;;4972076;28;20388;-73
2023/04/16 01:38:08;;;;;;;62.30;31.97;;;9.00;99.90;;;;;;4971497;28;20439;-74
2023/04/16 01:40:35;;;;;;;68.28;29.50;;;9.00;99.90;;;;;;4971583;28;20392;-72
2023/04/16 01:43:00;;;;;;;66.75;33.35;;;9.00;99.90;;;;;;4971069;28;20798;-73
2023/04/16 01:45:26;;;;;;;61.78;32.55;;;9.00;99.90;;;;;;4971457;28;20384;-71
2023/04/16 01:47:52;;;;;;;67.20;32.67;;;8.90;99.90;;;;;;4971479;28;20475;-73
2023/04/16 01:50:20;;;;;;;74.10;35.70;;;9.00;99.90;;;;;;4971965;28;20420;-72
2023/04/16 01:52:46;;;;;;;68.20;34.03;;;9.00;99.90;;;;;;4970731;28;20499;-72
2023/04/16 01:55:12;;;;;;;69.55;34.10;;;9.00;99.90;;;;;;4971426;28;20403;-73
2023/04/16 01:57:38;;;;;;;69.05;35.30;;;9.00;99.90;;;;;;4971324;28;20774;-73
2023/04/16 02:00:04;;;;;;;65.57;32.80;;;9.10;99.90;;;;;;4971661;28;20402;-73
2023/04/16 02:02:30;;;;;;;66.97;30.88;;;9.00;99.90;;;;;;4970906;28;20416;-73
2023/04/16 02:04:56;;;;;;;66.80;34.00;;;9.00;99.90;;;;;;4972097;28;20393;-73
2023/04/16 02:07:22;;;;;;;67.05;30.88;;;9.00;99.90;;;;;;4972216;28;20527;-74
2023/04/16 02:09:51;;;;;;;67.65;32.05;;;8.90;99.90;;;;;;4972018;28;20463;-72
2023/04/16 02:12:17;;;;;;;70.80;34.38;;;8.90;99.90;;;;;;4973977;28;20479;-72
2023/04/16 02:14:43;;;;;;;71.07;31.27;;;8.90;99.90;;;;;;4974738;28;20479;-73
2023/04/16 02:17:08;;;;;;;71.90;33.23;;;8.90;99.90;;;;;;4975419;28;20872;-73
2023/04/16 02:19:34;;;;;;;81.20;35.33;;;8.90;99.90;;;;;;4975030;28;20408;-73
2023/04/16 02:22:02;;;;;;;78.00;31.50;;;8.90;99.90;;;;;;4974054;28;20873;-72
2023/04/16 02:24:28;;;;;;;78.40;33.70;;;8.90;99.90;;;;;;4974693;28;20391;-72
2023/04/16 02:26:54;;;;;;;84.13;35.23;;;8.80;99.90;;;;;;4974539;28;20396;-71
2023/04/16 02:29:21;;;;;;;72.40;32.93;;;8.80;99.90;;;;;;4974399;28;20410;-72
2023/04/16 02:31:47;;;;;;;73.70;35.25;;;8.80;99.90;;;;;;4973569;28;20392;-72
2023/04/16 02:34:13;;;;;;;71.97;32.42;;;8.90;99.90;;;;;;4974296;28;20418;-72
2023/04/16 02:36:38;;;;;;;86.85;37.42;;;8.90;99.90;;;;;;4974483;28;20393;-73
2023/04/16 02:39:04;;;;;;;80.55;36.80;;;8.90;99.90;;;;;;4956846;28;20781;-73
2023/04/16 02:41:29;;;;;;;87.45;34.53;;;8.90;99.90;;;;;;4974001;28;20487;-73
2023/04/16 02:43:55;;;;;;;76.43;38.38;;;8.90;99.90;;;;;;4974580;28;20463;-73
2023/04/16 02:46:21;;;;;;;82.55;38.50;;;8.90;99.90;;;;;;4974874;28;20384;-72
2023/04/16 02:48:46;;;;;;;92.60;40.70;;;8.90;99.90;;;;;;4957309;28;20400;-73
2023/04/16 02:51:12;;;;;;;94.70;42.13;;;9.00;99.90;;;;;;4974450;28;20431;-72
2023/04/16 02:53:38;;;;;;;99.70;42.00;;;8.90;99.90;;;;;;4974826;28;20400;-72
2023/04/16 02:56:03;;;;;;;96.87;44.10;;;8.90;99.90;;;;;;4957453;28;20407;-73
2023/04/16 02:58:29;;;;;;;98.50;42.97;;;8.90;99.90;;;;;;4975263;28;20419;-73
2023/04/16 03:00:55;;;;;;;83.40;38.50;;;9.00;99.90;;;;;;4974330;28;20761;-73
2023/04/16 03:03:20;;;;;;;93.30;41.85;;;9.00;99.90;;;;;;4958258;28;20389;-73
2023/04/16 03:05:46;;;;;;;94.80;42.05;;;9.00;99.90;;;;;;4978955;28;20396;-73
2023/04/16 03:08:12;;;;;;;84.90;37.28;;;9.00;99.90;;;;;;4978307;28;20861;-74
2023/04/16 03:10:38;;;;;;;85.17;37.07;;;9.00;99.90;;;;;;4978991;28;20463;-73
2023/04/16 03:13:03;;;;;;;88.57;38.67;;;9.00;99.90;;;;;;4978461;28;20452;-73
2023/04/16 03:15:30;;;;;;;86.70;37.97;;;8.90;99.90;;;;;;4975574;28;20391;-72
2023/04/16 03:17:56;;;;;;;73.40;36.40;;;9.00;99.90;;;;;;4975166;28;21180;-72
2023/04/16 03:20:21;;;;;;;84.10;38.85;;;9.00;99.90;;;;;;4977844;28;20774;-73
2023/04/16 03:22:47;;;;;;;86.20;40.75;;;9.00;99.90;;;;;;4976768;28;20428;-73
2023/04/16 03:25:13;;;;;;;79.38;35.70;;;9.00;99.90;;;;;;4978788;28;20395;-73
2023/04/16 03:27:38;;;;;;;88.43;42.00;;;9.00;99.90;;;;;;4983361;28;20427;-73
2023/04/16 03:30:09;;;;;;;86.53;39.70;;;9.00;99.90;;;;;;4991166;28;20392;-73
2023/04/16 03:32:37;;;;;;;90.70;38.57;;;9.00;99.90;;;;;;4969702;28;20514;-72
2023/04/16 03:35:07;;;;;;;103.82;41.72;;;9.00;99.90;;;;;;4988678;28;20399;-73
2023/04/16 03:37:33;;;;;;;99.82;43.78;;;8.90;99.90;;;;;;4982521;28;20388;-72
2023/04/16 03:39:59;;;;;;;87.28;42.53;;;8.90;99.90;;;;;;4984297;28;20392;-73
2023/04/16 03:42:24;;;;;;;98.25;44.55;;;8.90;99.90;;;;;;4976875;28;20392;-72
2023/04/16 03:44:51;;;;;;;99.53;40.30;;;9.00;99.90;;;;;;4983903;28;20384;-74
2023/04/16 03:47:17;;;;;;;102.40;41.78;;;9.00;99.90;;;;;;4984203;28;20392;-73
2023/04/16 03:49:42;;;;;;;97.97;40.80;;;9.00;99.90;;;;;;4960551;28;20388;-72
2023/04/16 03:52:08;;;;;;;88.30;41.00;;;9.00;99.90;;;;;;4975969;28;20459;-73
2023/04/16 03:54:34;;;;;;;94.50;44.30;;;9.10;99.90;;;;;;4977188;28;20427;-73
2023/04/16 03:56:59;;;;;;;97.13;42.90;;;9.20;99.90;;;;;;4976294;28;20443;-73
2023/04/16 03:59:25;;;;;;;89.97;41.60;;;9.20;99.90;;;;;;4976315;28;20514;-72
2023/04/16 04:01:50;;;;;;;97.20;41.57;;;9.20;99.90;;;;;;4975606;28;20484;-73
2023/04/16 04:04:16;;;;;;;93.50;41.67;;;9.20;99.90;;;;;;4959107;28;20403;-73
2023/04/16 04:06:43;;;;;;;84.93;42.17;;;9.20;99.90;;;;;;4976121;28;20472;-72
2023/04/16 04:09:09;;;;;;;85.22;41.45;;;9.30;99.90;;;;;;4974175;28;20490;-74
2023/04/16 04:11:34;;;;;;;84.55;40.78;;;9.30;99.90;;;;;;4954566;28;20462;-73
2023/04/16 04:14:00;;;;;;;77.97;39.38;;;9.30;99.90;;;;;;4972664;28;20400;-72
2023/04/16 04:16:25;;;;;;;86.50;40.60;;;9.30;99.90;;;;;;4973145;28;20475;-72
2023/04/16 04:18:51;;;;;;;99.17;43.60;;;9.30;99.90;;;;;;4955530;28;20430;-72
2023/04/16 04:21:16;;;;;;;92.50;42.17;;;9.30;99.90;;;;;;4972513;28;20761;-73
2023/04/16 04:23:42;;;;;;;94.43;42.83;;;9.30;99.90;;;;;;4955097;28;20392;-71
2023/04/16 04:26:08;;;;;;;97.22;43.25;;;9.30;99.90;;;;;;4973682;28;20885;-73
2023/04/16 04:28:34;;;;;;;102.45;43.67;;;9.30;99.90;;;;;;4973843;28;20395;-73
2023/04/16 04:31:00;;;;;;;92.15;43.83;;;9.30;99.90;;;;;;4971780;28;20396;-71
2023/04/16 04:33:26;;;;;;;99.22;43.75;;;9.30;99.90;;;;;;4972111;28;20408;-73
2023/04/16 04:35:52;;;;;;;99.65;43.90;;;9.30;99.90;;;;;;4972313;28;20403;-73
2023/04/16 04:38:20;;;;;;;88.53;41.35;;;9.30;99.90;;;;;;4972454;28;20404;-73
2023/04/16 04:40:45;;;;;;;85.78;40.88;;;9.30;99.90;;;;;;4955447;28;20407;-72
2023/04/16 04:43:11;;;;;;;92.60;43.35;;;9.30;99.90;;;;;;4972928;28;20950;-72
2023/04/16 04:45:37;;;;;;;95.53;44.35;;;9.30;99.90;;;;;;4975782;28;20388;-73
2023/04/16 04:48:02;;;;;;;93.73;42.10;;;9.40;99.90;;;;;;4974826;28;20425;-72
2023/04/16 04:50:28;;;;;;;101.85;44.30;;;9.40;99.90;;;;;;4972465;28;20466;-71
2023/04/16 04:52:53;;;;;;;96.38;43.85;;;9.40;99.90;;;;;;4971348;28;20388;-72
2023/04/16 04:55:19;;;;;;;97.87;43.90;;;9.40;99.90;;;;;;4954975;28;20412;-72
2023/04/16 04:57:45;;;;;;;102.37;44.00;;;9.40;99.90;;;;;;4972077;28;20451;-73
2023/04/16 05:00:11;;;;;;;102.57;45.57;;;9.40;99.90;;;;;;4971919;28;20869;-73
2023/04/16 05:02:37;;;;;;;102.50;47.97;;;9.40;99.90;;;;;;4971365;28;20482;-73
2023/04/16 05:05:03;;;;;;;109.65;46.33;;;9.40;99.90;;;;;;4972069;28;20392;-73
2023/04/16 05:07:29;;;;;;;112.32;45.42;;;9.40;99.90;;;;;;4971852;28;20464;-71
2023/04/16 05:09:55;;;;;;;102.90;46.03;;;9.30;99.90;;;;;;4971915;28;20392;-72
2023/04/16 05:12:21;;;;;;;114.60;50.80;;;9.30;99.90;;;;;;4971222;28;20407;-72
2023/04/16 05:14:46;;;;;;;111.45;48.90;;;9.30;99.90;;;;;;4971607;28;20443;-73
2023/04/16 05:17:12;;;;;;;108.90;45.17;;;9.30;99.90;;;;;;4971775;28;20391;-70
2023/04/16 05:19:37;;;;;;;104.10;46.83;;;9.30;99.90;;;;;;4971739;28;20503;-74
2023/04/16 05:22:03;;;;;;;116.27;47.30;;;9.30;99.90;;;;;;4971044;28;20399;-73
2023/04/16 05:24:28;;;;;;;104.07;46.93;;;9.30;99.90;;;;;;4971642;28;20395;-74
2023/04/16 05:26:56;;;;;;;107.53;47.00;;;9.30;99.90;;;;;;4971518;28;20395;-73
2023/04/16 05:29:21;;;;;;;102.22;43.45;;;9.40;99.90;;;;;;4954405;28;20570;-72
2023/04/16 05:31:47;;;;;;;100.97;44.00;;;9.30;99.90;;;;;;4971060;28;20829;-71
2023/04/16 05:34:12;;;;;;;99.13;43.03;;;9.30;99.90;;;;;;4971948;28;20482;-73
2023/04/16 05:36:38;;;;;;;108.07;47.40;;;9.30;99.90;;;;;;4954363;28;20620;-72
2023/04/16 05:39:03;;;;;;;99.67;44.33;;;9.30;99.90;;;;;;4971419;28;20503;-72
2023/04/16 05:41:29;;;;;;;95.47;41.77;;;9.30;99.90;;;;;;4953808;28;20404;-72
2023/04/16 05:43:55;;;;;;;96.93;42.28;;;9.30;99.90;;;;;;4972041;28;20436;-73
2023/04/16 05:46:20;;;;;;;105.65;44.53;;;9.20;99.90;;;;;;4973577;28;20411;-73
2023/04/16 05:48:46;;;;;;;111.77;46.40;;;9.20;99.90;;;;;;4976244;28;20400;-73
2023/04/16 05:51:11;;;;;;;106.80;44.47;;;9.30;99.90;;;;;;4975812;28;20464;-75
2023/04/16 05:53:37;;;;;;;89.03;41.77;;;9.40;99.90;;;;;;4978271;28;20392;-73
2023/04/16 05:56:02;;;;;;;105.27;45.67;;;9.30;99.90;;;;;;4960599;28;20532;-73
2023/04/16 05:58:28;;;;;;;112.17;44.50;;;9.30;99.90;;;;;;4960889;28;20412;-73
2023/04/16 06:00:53;;;;;;;111.50;44.00;;;9.20;99.90;;;;;;4977613;28;20471;-73
2023/04/16 06:03:19;;;;;;;103.55;43.05;;;9.20;99.90;;;;;;4975868;28;20396;-72
2023/04/16 06:05:45;;;;;;;111.83;47.20;;;9.20;99.90;;;;;;4975820;28;20863;-72
2023/04/16 06:08:10;;;;;;;107.50;45.13;;;9.20;99.90;;;;;;4975824;28;20388;-74
2023/04/16 06:10:36;;;;;;;99.67;40.40;;;9.30;99.90;;;;;;4977406;28;20436;-73
2023/04/16 06:13:02;;;;;;;103.63;42.50;;;9.20;99.90;;;;;;4975934;28;20893;-72
2023/04/16 06:15:27;;;;;;;101.33;43.97;;;9.20;99.90;;;;;;4976294;28;20459;-73
2023/04/16 06:17:54;;;;;;;116.88;47.70;;;9.30;99.90;;;;;;4983179;28;20513;-71
2023/04/16 06:20:20;;;;;;;113.15;48.28;;;9.20;99.90;;;;;;4969454;28;20400;-74
2023/04/16 06:22:46;;;;;;;102.22;43.95;;;9.30;99.90;;;;;;4984611;28;20435;-73
2023/04/16 06:25:11;;;;;;;110.93;47.97;;;9.30;99.90;;;;;;4959379;28;20397;-72
2023/04/16 06:27:37;;;;;;;116.45;50.47;;;9.30;99.90;;;;;;4976801;28;20749;-74
2023/04/16 06:30:02;;;;;;;109.05;48.85;;;9.40;99.90;;;;;;4976324;28;20531;-73
2023/04/16 06:32:28;;;;;;;106.45;47.35;;;9.40;99.90;;;;;;4975102;28;20407;-72
2023/04/16 06:34:55;;;;;;;106.32;47.72;;;9.40;99.90;;;;;;4976762;28;20754;-72
2023/04/16 06:37:20;;;;;;;99.70;46.13;;;9.40;99.90;;;;;;4977930;28;20765;-74
2023/04/16 06:39:46;;;;;;;86.30;36.20;;;9.40;99.90;;;;;;4979622;28;20422;-73
2023/04/16 06:42:11;;;;;;;99.00;45.87;;;9.30;99.90;;;;;;4958252;28;20399;-72
2023/04/16 06:44:37;;;;;;;97.57;46.40;;;9.30;99.90;;;;;;4974851;28;20385;-73
2023/04/16 06:47:03;;;;;;;98.77;46.00;;;9.30;99.90;;;;;;4974928;28;20827;-73
2023/04/16 06:49:28;;;;;;;83.27;39.87;;;9.40;99.90;;;;;;4974638;28;20392;-73
2023/04/16 06:51:54;;;;;;;81.43;36.87;;;9.40;99.90;;;;;;4974036;28;20395;-72
2023/04/16 06:54:19;;;;;;;73.93;37.63;;;9.40;99.90;;;;;;4975062;28;20403;-72
2023/04/16 06:56:45;;;;;;;74.80;36.67;;;9.40;99.90;;;;;;4974452;28;20407;-73
2023/04/16 06:59:10;;;;;;;74.57;35.13;;;9.50;99.90;;;;;;4974649;28;20416;-73
2023/04/16 07:01:36;;;;;;;60.30;30.20;;;9.50;99.90;;;;;;4973900;28;20758;-73
2023/04/16 07:04:02;;;;;;;62.37;32.80;;;9.40;99.90;;;;;;4974577;28;20749;-73
2023/04/16 07:06:27;;;;;;;72.43;32.00;;;9.40;99.90;;;;;;4974652;28;20384;-74
2023/04/16 07:08:53;;;;;;;57.80;31.90;;;9.50;99.90;;;;;;4975536;28;20407;-73
2023/04/16 07:11:19;;;;;;;57.03;33.03;;;9.50;99.90;;;;;;4975185;28;20407;-72
2023/04/16 07:13:45;;;;;;;60.17;31.38;;;9.60;99.90;;;;;;4974998;28;20400;-73
2023/04/16 07:16:10;;;;;;;59.77;29.00;;;9.70;99.90;;;;;;4974650;28;20489;-72
2023/04/16 07:18:36;;;;;;;57.63;30.30;;;9.70;99.90;;;;;;4973927;28;20412;-73
2023/04/16 07:21:02;;;;;;;57.77;29.87;;;9.70;99.90;;;;;;4973343;28;20476;-73
2023/04/16 07:23:28;;;;;;;54.83;29.80;;;9.80;99.80;;;;;;4955994;28;20396;-73
2023/04/16 07:25:53;;;;;;;54.23;29.30;;;9.80;99.90;;;;;;4973603;28;20758;-72
2023/04/16 07:28:19;;;;;;;61.73;30.87;;;9.90;98.00;;;;;;4973469;28;20443;-73
2023/04/16 07:30:45;;;;;;;54.58;30.98;;;9.90;98.40;;;;;;4973652;28;20434;-72
2023/04/16 07:33:10;;;;;;;51.70;28.87;;;10.00;95.50;;;;;;4972801;28;20415;-74
2023/04/16 07:35:36;;;;;;;58.43;29.33;;;10.10;93.60;;;;;;4973740;28;20428;-74
2023/04/16 07:38:01;;;;;;;58.47;29.60;;;10.10;91.90;;;;;;4973321;28;20419;-74
2023/04/16 07:40:27;;;;;;;57.27;30.50;;;10.10;93.00;;;;;;4973417;28;20490;-73
2023/04/16 07:42:54;;;;;;;57.67;31.13;;;10.20;94.30;;;;;;4972494;28;20395;-73
2023/04/16 07:45:20;;;;;;;54.22;30.77;;;10.20;92.80;;;;;;4973621;28;20442;-73
2023/04/16 07:47:45;;;;;;;67.00;35.20;;;10.30;94.20;;;;;;4973287;28;20881;-73
2023/04/16 07:50:11;;;;;;;70.07;35.70;;;10.40;90.50;;;;;;4973283;28;20524;-73
2023/04/16 07:52:40;;;;;;;67.13;37.17;;;10.40;90.70;;;;;;4955078;28;20423;-74
2023/04/16 07:55:06;;;;;;;85.57;38.15;;;10.50;91.00;;;;;;4973445;28;20475;-73
2023/04/16 07:57:32;;;;;;;82.15;38.00;;;10.70;90.20;;;;;;4972929;28;20400;-73
2023/04/16 07:59:57;;;;;;;72.95;33.45;;;10.70;86.80;;;;;;4973004;28;20949;-73
2023/04/16 08:02:23;;;;;;;78.95;35.88;;;10.60;84.80;;;;;;4972632;28;20443;-74
2023/04/16 08:04:49;;;;;;;68.43;35.22;;;10.60;85.80;;;;;;4955736;28;20398;-72
2023/04/16 08:07:14;;;;;;;71.65;36.30;;;10.70;84.30;;;;;;4973039;28;20380;-73
2023/04/16 08:09:47;;;;;;;63.05;34.17;;;10.80;83.00;;;;;;4972304;28;20396;-72
2023/04/16 08:12:13;;;;;;;70.50;37.40;;;10.80;83.40;;;;;;4972096;28;20443;-72
2023/04/16 08:14:40;;;;;;;65.60;34.90;;;11.00;82.30;;;;;;4955451;28;20400;-73
2023/04/16 08:17:05;;;;;;;65.60;34.77;;;11.20;77.50;;;;;;4956419;28;20753;-74
2023/04/16 08:19:31;;;;;;;68.47;34.57;;;11.20;78.80;;;;;;4955705;28;20416;-74
2023/04/16 08:21:56;;;;;;;62.97;31.27;;;11.40;76.70;;;;;;4972442;28;20388;-74
2023/04/16 08:24:22;;;;;;;59.53;31.90;;;11.30;74.40;;;;;;4973449;28;20376;-73
2023/04/16 08:26:47;;;;;;;60.17;31.90;;;11.40;76.10;;;;;;4972985;28;20424;-74
2023/04/16 08:29:13;;;;;;;61.78;31.45;;;11.40;75.00;;;;;;4972628;28;20396;-73
2023/04/16 08:31:39;;;;;;;62.65;31.90;;;11.30;74.20;;;;;;4972104;28;20404;-74
2023/04/16 08:34:05;;;;;;;55.10;29.58;;;11.10;75.20;;;;;;4972321;28;20423;-73
2023/04/16 08:36:30;;;;;;;62.40;32.17;;;11.10;74.10;;;;;;4972666;28;20878;-73
2023/04/16 08:38:56;;;;;;;56.17;31.03;;;11.10;77.60;;;;;;4972403;28;20821;-74
2023/04/16 08:41:23;;;;;;;54.60;29.93;;;11.20;77.30;;;;;;4972393;28;20757;-74
2023/04/16 08:43:50;;;;;;;59.15;29.73;;;11.20;75.50;;;;;;4972873;28;20397;-75
2023/04/16 08:46:16;;;;;;;56.42;29.92;;;11.10;73.90;;;;;;4973763;28;20479;-74
2023/04/16 08:48:45;;;;;;;53.22;31.85;;;11.20;73.80;;;;;;4974910;28;20395;-73
2023/04/16 08:51:11;;;;;;;58.03;31.07;;;11.40;74.40;;;;;;4976098;28;20474;-74
2023/04/16 08:53:49;;;;;;;51.95;27.42;;;11.70;71.90;;;;;;4983910;28;20384;-74
2023/04/16 08:56:18;;;;;;;52.97;26.60;;;11.80;66.80;;;;;;4989646;28;20455;-74
2023/04/16 08:58:47;;;;;;;48.50;27.02;;;11.70;64.20;;;;;;4974151;28;20821;-74
2023/04/16 09:01:14;;;;;;;52.53;29.07;;;11.60;64.70;;;;;;4971786;28;20419;-73
2023/04/16 09:03:40;;;;;;;49.45;29.27;;;11.90;65.00;;;;;;4972155;28;20392;-72
2023/04/16 09:06:06;;;;;;;43.83;23.95;;;12.20;62.00;;;;;;4972196;28;20384;-73
2023/04/16 09:08:34;;;;;;;54.80;28.53;;;12.00;58.90;;;;;;4972116;28;20396;-73
2023/04/16 09:11:00;;;;;;;45.63;26.02;;;12.30;61.30;;;;;;4971794;28;20480;-73
2023/04/16 09:13:26;;;;;;;47.47;26.05;;;12.30;56.60;;;;;;4972151;28;20480;-74
2023/04/16 09:15:55;;;;;;;46.75;27.25;;;12.20;60.30;;;;;;4955520;28;20412;-74
2023/04/16 09:18:22;;;;;;;51.30;29.75;;;12.20;59.60;;;;;;4972539;28;20408;-74
2023/04/16 09:20:48;;;;;;;54.73;28.80;;;12.20;61.10;;;;;;4974617;28;20384;-74
2023/04/16 09:23:14;;;;;;;55.53;30.95;;;12.30;59.30;;;;;;4958500;28;20410;-74
2023/04/16 09:25:39;;;;;;;51.00;29.13;;;12.40;59.60;;;;;;4976021;28;20388;-74
2023/04/16 09:28:05;;;;;;;44.50;24.83;;;12.10;57.00;;;;;;4976520;28;20399;-72
2023/04/16 09:30:30;;;;;;;54.53;30.93;;;11.90;59.80;;;;;;4976070;28;20398;-73
2023/04/16 09:33:21;;;;;;;49.17;30.75;;;12.10;62.30;;;;;;4975262;28;20482;-72
2023/04/16 09:35:55;;;;;;;56.40;29.55;;;12.30;58.30;;;;;;4975739;28;20479;-73
2023/04/16 09:38:21;;;;;;;59.35;32.28;;;12.50;56.80;;;;;;4975734;28;20419;-74
2023/04/16 09:40:47;;;;;;;47.60;28.80;;;12.70;55.20;;;;;;4975479;28;20391;-75
2023/04/16 09:43:17;;;;;;;45.92;23.75;;;13.00;53.20;;;;;;4975191;28;20474;-73
2023/04/16 09:45:49;;;;;;;50.85;28.25;;;13.00;46.90;;;;;;4976321;28;20897;-72
2023/04/16 09:48:15;;;;;;;46.47;28.85;;;13.20;49.90;;;;;;4958457;28;20474;-73
2023/04/16 09:50:50;;;;;;;49.38;26.48;;;13.50;49.50;;;;;;4975321;28;20379;-73
2023/04/16 09:53:26;;;;;;;46.53;27.02;;;13.30;47.70;;;;;;4975766;28;20486;-72
2023/04/16 09:55:55;;;;;;;46.65;27.80;;;13.20;48.60;;;;;;4960132;28;20400;-72
2023/04/16 09:58:23;;;;;;;53.80;31.30;;;13.20;49.80;;;;;;4981844;28;20422;-73
2023/04/16 10:00:54;;;;;;;51.33;28.30;;;13.30;49.90;;;;;;4981462;28;20447;-73
2023/04/16 10:03:29;;;;;;;53.47;29.10;;;13.20;47.80;;;;;;4983251;28;20838;-73
2023/04/16 10:05:54;;;;;;;53.15;29.92;;;12.90;51.60;;;;;;4960036;28;20428;-74
2023/04/16 10:08:20;;;;;;;52.85;29.98;;;12.70;52.90;;;;;;4975710;28;20415;-72
2023/04/16 10:10:46;;;;;;;51.37;31.23;;;12.60;54.40;;;;;;4975504;28;20396;-76
2023/04/16 10:13:16;;;;;;;54.77;29.20;;;12.60;54.30;;;;;;4975018;28;20431;-74
2023/04/16 10:15:42;;;;;;;55.92;30.27;;;12.80;52.50;;;;;;4975001;28;20400;-73
2023/04/16 10:18:07;;;;;;;57.47;29.90;;;13.10;50.80;;;;;;4975028;28;20415;-73
2023/04/16 10:20:33;;;;;;;52.35;29.70;;;13.00;51.30;;;;;;4975157;28;20419;-74
2023/04/16 10:23:00;;;;;;;51.03;29.57;;;13.20;51.50;;;;;;4974612;28;20397;-73
2023/04/16 10:25:27;;;;;;;45.80;28.20;;;13.20;49.00;;;;;;4957859;28;20392;-72
2023/04/16 10:27:54;;;;;;;51.00;28.92;;;13.30;48.80;;;;;;4975728;28;20396;-73
2023/04/16 10:30:20;;;;;;;50.95;28.35;;;13.40;48.70;;;;;;4975477;28;20892;-72
2023/04/16 10:32:46;;;;;;;45.25;27.92;;;13.40;48.70;;;;;;4973238;28;20439;-74
2023/04/16 10:35:18;;;;;;;53.03;29.70;;;13.40;46.80;;;;;;4957582;28;20447;-73
2023/04/16 10:37:44;;;;;;;49.85;29.85;;;13.40;47.80;;;;;;4974922;28;20428;-75
2023/04/16 10:40:23;;;;;;;50.78;29.92;;;13.50;48.60;;;;;;4974797;28;20451;-72
2023/04/16 10:42:56;;;;;;;47.97;27.42;;;13.80;46.60;;;;;;4973942;28;20388;-72
2023/04/16 10:45:29;;;;;;;47.35;28.95;;;14.10;40.90;;;;;;4974701;28;20392;-74
2023/04/16 10:47:56;;;;;;;42.63;25.80;;;14.50;41.10;;;;;;4974775;28;20400;-73
2023/04/16 10:50:22;;;;;;;43.25;24.75;;;14.30;39.70;;;;;;4974910;28;20396;-72
2023/04/16 10:52:47;;;;;;;42.80;25.03;;;14.20;38.90;;;;;;4974039;28;20802;-73
2023/04/16 10:55:16;;;;;;;39.40;23.83;;;14.50;38.00;;;;;;4957117;28;20396;-73
2023/04/16 10:57:42;;;;;;;37.22;23.45;;;14.70;34.80;;;;;;4974542;28;20407;-72
2023/04/16 11:00:28;;;;;;;35.97;23.05;;;14.70;35.80;;;;;;4974454;28;20393;-72
2023/04/16 11:02:53;;;;;;;35.05;22.60;;;15.10;32.10;;;;;;4972831;28;20496;-72
2023/04/16 11:05:23;;;;;;;32.43;21.40;;;15.20;31.30;;;;;;4974769;28;20946;-75
2023/04/16 11:07:48;;;;;;;32.72;21.50;;;15.20;31.00;;;;;;4975853;28;20400;-72
2023/04/16 11:10:14;;;;;;;32.60;22.00;;;15.10;29.70;;;;;;4977354;28;20406;-74
2023/04/16 11:12:45;;;;;;;28.50;20.00;;;15.00;30.70;;;;;;4993568;28;20396;-73
2023/04/16 11:15:12;;;;;;;27.67;18.20;;;14.90;30.70;;;;;;4989723;28;20488;-72
2023/04/16 11:17:43;;;;;;;34.85;19.80;;;14.20;32.80;;;;;;4978051;28;20431;-72
2023/04/16 11:20:20;;;;;;;29.77;20.90;;;14.10;33.70;;;;;;4974641;28;20538;-73
2023/04/16 11:22:54;;;;;;;39.42;25.65;;;14.20;33.10;;;;;;4973934;28;20495;-73
2023/04/16 11:25:23;;;;;;;46.55;28.02;;;14.50;36.60;;;;;;4968021;28;20396;-73
2023/04/16 11:27:50;;;;;;;46.40;27.65;;;14.30;38.80;;;;;;4989095;28;20384;-74
2023/04/16 11:30:16;;;;;;;46.63;27.42;;;14.40;38.60;;;;;;4981959;28;20395;-74
2023/04/16 11:32:43;;;;;;;46.33;26.92;;;14.50;39.00;;;;;;4974228;28;20404;-72
2023/04/16 11:35:18;;;;;;;42.47;24.20;;;14.70;37.80;;;;;;4973794;28;20388;-72
2023/04/16 11:37:45;;;;;;;46.00;27.37;;;14.60;36.20;;;;;;4973726;28;20488;-72
2023/04/16 11:40:11;;;;;;;40.67;25.05;;;14.30;38.80;;;;;;4973909;28;20392;-71
2023/04/16 11:42:42;;;;;;;39.50;24.80;;;14.30;37.70;;;;;;4973170;28;20471;-72
2023/04/16 11:45:10;;;;;;;37.88;25.15;;;14.40;37.10;;;;;;4973735;28;20395;-74
2023/04/16 11:47:55;;;;;;;34.67;23.33;;;14.60;35.20;;;;;;4973570;28;20399;-74
2023/04/16 11:50:22;;;;;;;34.10;22.40;;;14.80;33.60;;;;;;4955798;28;20648;-73
2023/04/16 11:52:49;;;;;;;28.08;19.17;;;14.90;31.50;;;;;;4973053;28;20814;-73
2023/04/16 11:55:15;;;;;;;29.85;21.00;;;14.90;27.80;;;;;;4974233;28;20388;-74
2023/04/16 11:57:41;;;;;;;28.27;19.90;;;15.10;28.50;;;;;;4973483;28;20389;-72
2023/04/16 12:00:12;;;;;;;26.17;18.27;;;15.50;25.00;;;;;;4973556;28;20940;-72
2023/04/16 12:02:50;;;;;;;26.33;17.80;;;16.10;22.70;;;;;;4955172;28;20392;-73
2023/04/16 12:05:37;;;;;;;30.90;19.13;;;16.20;22.00;;;;;;4973502;28;20463;-74
2023/04/16 12:08:06;;;;;;;24.60;17.70;;;16.30;22.00;;;;;;4973536;28;20758;-73
2023/04/16 12:10:34;;;;;;;28.98;17.45;;;16.00;23.30;;;;;;4975002;28;20428;-75
2023/04/16 12:13:14;;;;;;;26.90;17.92;;;15.70;24.60;;;;;;4976162;28;20384;-74
2023/04/16 12:15:44;;;;;;;26.70;18.25;;;15.20;27.70;;;;;;4975416;28;20400;-72
2023/04/16 12:18:10;;;;;;;29.73;18.33;;;14.90;29.70;;;;;;4974721;28;20467;-73
2023/04/16 12:20:42;;;;;;;22.90;16.53;;;14.90;30.70;;;;;;4973379;28;20384;-73
2023/04/16 12:23:08;;;;;;;25.23;16.60;;;15.00;29.20;;;;;;4972452;28;20380;-73
2023/04/16 12:25:34;;;;;;;21.35;15.00;;;15.30;27.20;;;;;;4972918;28;20396;-72
2023/04/16 12:28:00;;;;;;;24.03;16.57;;;15.50;24.60;;;;;;4955799;28;20569;-73